createdAt,value
2018-03-15T00:01:54.185Z,96086.41
2018-03-15T00:04:21.715Z,96089.05
2018-03-15T00:06:49.230Z,96080.78
2018-03-15T00:09:16.761Z,96076.22
2018-03-15T00:11:44.273Z,96079.68
2018-03-15T00:14:12.084Z,96077.65
2018-03-15T00:16:39.597Z,96076.84
2018-03-15T00:19:08.043Z,96073.19
2018-03-15T00:21:36.627Z,96072.87
2018-03-15T00:24:04.136Z,96072.31
2018-03-15T00:26:31.695Z,96067.39
2018-03-15T00:28:59.230Z,96073.78
2018-03-15T00:31:26.743Z,96083.16
2018-03-15T00:33:54.278Z,96082.05
2018-03-15T00:36:21.791Z,96088.45
2018-03-15T00:38:49.617Z,96082.48
2018-03-15T00:41:17.132Z,96083.66
2018-03-15T00:43:44.643Z,96079.95
2018-03-15T00:46:12.181Z,96084.25
2018-03-15T00:48:39.694Z,96075.66
2018-03-15T00:51:07.234Z,96072.12
2018-03-15T00:53:34.781Z,96073.45
2018-03-15T00:56:02.402Z,96074.30
2018-03-15T00:58:29.955Z,96076.53
2018-03-15T01:00:57.461Z,96068.69
2018-03-15T01:03:25.954Z,96071.38
2018-03-15T01:05:53.465Z,96071.48
2018-03-15T01:08:20.987Z,96074.80
2018-03-15T01:10:48.526Z,96062.30
2018-03-15T01:13:16.046Z,96060.67
2018-03-15T01:15:43.937Z,96054.78
2018-03-15T01:18:11.450Z,96051.39
2018-03-15T01:20:38.969Z,96051.09
2018-03-15T01:23:07.452Z,96046.48
2018-03-15T01:25:34.972Z,96035.81
2018-03-15T01:28:02.530Z,96033.02
2018-03-15T01:30:30.046Z,96034.57
2018-03-15T01:32:57.556Z,96027.80
2018-03-15T01:35:25.118Z,96022.73
2018-03-15T01:37:52.629Z,96021.84
2018-03-15T01:40:20.181Z,96016.05
2018-03-15T01:42:47.690Z,96016.17
2018-03-15T01:45:15.207Z,96017.13
2018-03-15T01:47:42.749Z,96012.10
2018-03-15T01:50:10.275Z,96008.41
2018-03-15T01:52:38.112Z,96006.58
2018-03-15T01:55:05.635Z,96001.30
2018-03-15T01:57:33.145Z,95993.91
2018-03-15T02:00:00.712Z,95994.70
2018-03-15T02:02:28.227Z,95989.80
2018-03-15T02:04:55.933Z,95992.09
2018-03-15T02:07:24.439Z,95995.23
2018-03-15T02:09:51.953Z,95995.50
2018-03-15T02:12:19.502Z,95988.10
2018-03-15T02:14:47.025Z,95989.27
2018-03-15T02:17:14.753Z,95985.05
2018-03-15T02:19:42.285Z,95984.63
2018-03-15T02:22:09.792Z,95980.98
2018-03-15T02:24:37.335Z,95973.31
2018-03-15T02:27:04.848Z,95971.86
2018-03-15T02:29:32.552Z,95955.91
2018-03-15T02:32:00.068Z,95971.91
2018-03-15T02:34:27.579Z,95970.98
2018-03-15T02:36:55.128Z,95967.23
2018-03-15T02:39:23.628Z,95956.20
2018-03-15T02:41:51.165Z,95959.81
2018-03-15T02:44:18.679Z,95952.47
2018-03-15T02:46:46.201Z,95941.52
2018-03-15T02:49:13.743Z,95943.58
2018-03-15T02:51:41.282Z,95939.34
2018-03-15T02:54:08.839Z,95944.41
2018-03-15T02:56:36.360Z,95933.55
2018-03-15T02:59:03.869Z,95929.09
2018-03-15T03:01:31.413Z,95919.78
2018-03-15T03:03:58.930Z,95913.30
2018-03-15T03:06:26.466Z,95912.88
2018-03-15T03:08:53.981Z,95906.77
2018-03-15T03:11:21.493Z,95902.91
2018-03-15T03:13:49.034Z,95896.73
2018-03-15T03:16:16.545Z,95910.91
2018-03-15T03:18:44.354Z,95908.17
2018-03-15T03:21:11.880Z,95898.25
2018-03-15T03:23:39.394Z,95898.53
2018-03-15T03:26:06.944Z,95897.79
2018-03-15T03:28:34.451Z,95903.44
2018-03-15T03:31:02.478Z,95901.47
2018-03-15T03:33:30.080Z,95900.73
2018-03-15T03:35:57.602Z,95897.95
2018-03-15T03:38:25.146Z,95901.17
2018-03-15T03:40:52.686Z,95900.23
2018-03-15T03:43:20.553Z,95899.48
2018-03-15T03:45:48.065Z,95892.80
2018-03-15T03:48:15.579Z,95894.91
2018-03-15T03:50:43.175Z,95886.05
2018-03-15T03:53:10.668Z,95877.81
2018-03-15T03:55:38.346Z,95867.38
2018-03-15T03:58:05.857Z,95860.70
2018-03-15T04:00:33.369Z,95853.00
2018-03-15T04:03:00.933Z,95855.06
2018-03-15T04:05:28.449Z,95848.72
2018-03-15T04:07:56.295Z,95842.72
2018-03-15T04:10:23.805Z,95843.63
2018-03-15T04:12:51.318Z,95831.97
2018-03-15T04:15:18.861Z,95828.23
2018-03-15T04:17:46.369Z,95825.41
2018-03-15T04:20:14.144Z,95823.83
2018-03-15T04:22:41.665Z,95820.53
2018-03-15T04:25:09.180Z,95822.42
2018-03-15T04:27:36.725Z,95826.77
2018-03-15T04:30:04.269Z,95832.17
2018-03-15T04:32:31.913Z,95827.38
2018-03-15T04:34:59.422Z,95826.94
2018-03-15T04:37:26.937Z,95828.81
2018-03-15T04:39:54.483Z,95819.84
2018-03-15T04:42:21.994Z,95819.94
2018-03-15T04:44:49.559Z,95808.36
2018-03-15T04:47:17.077Z,95792.47
2018-03-15T04:49:44.598Z,95787.16
2018-03-15T04:52:12.133Z,95772.23
2018-03-15T04:54:39.645Z,95770.37
2018-03-15T04:57:07.201Z,95765.42
2018-03-15T04:59:35.222Z,95752.34
2018-03-15T05:02:02.734Z,95750.80
2018-03-15T05:04:30.275Z,95753.61
2018-03-15T05:06:57.800Z,95745.59
2018-03-15T05:09:25.558Z,95743.74
2018-03-15T05:11:53.069Z,95737.77
2018-03-15T05:14:20.589Z,95731.84
2018-03-15T05:16:48.125Z,95722.34
2018-03-15T05:19:15.645Z,95724.70
2018-03-15T05:21:43.434Z,95719.28
2018-03-15T05:24:10.951Z,95719.16
2018-03-15T05:26:38.470Z,95720.72
2018-03-15T05:29:06.011Z,95711.36
2018-03-15T05:31:33.522Z,95711.66
2018-03-15T05:34:01.237Z,95710.05
2018-03-15T05:36:28.760Z,95704.02
2018-03-15T05:38:56.271Z,95698.91
2018-03-15T05:41:23.831Z,95689.69
2018-03-15T05:43:51.352Z,95692.72
2018-03-15T05:46:19.125Z,95690.38
2018-03-15T05:48:46.648Z,95687.86
2018-03-15T05:51:14.157Z,95683.09
2018-03-15T05:53:41.702Z,95675.02
2018-03-15T05:56:09.221Z,95676.77
2018-03-15T05:58:37.029Z,95683.83
2018-03-15T06:01:04.550Z,95691.00
2018-03-15T06:03:32.144Z,95688.05
2018-03-15T06:06:00.027Z,95694.17
2018-03-15T06:08:27.546Z,95691.47
2018-03-15T06:10:55.113Z,95680.88
2018-03-15T06:13:22.629Z,95682.23
2018-03-15T06:15:50.158Z,95689.27
2018-03-15T06:18:17.692Z,95691.19
2018-03-15T06:20:45.226Z,95683.11
2018-03-15T06:23:12.769Z,95686.47
2018-03-15T06:25:40.359Z,95686.45
2018-03-15T06:28:07.882Z,95685.68
2018-03-15T06:30:35.426Z,95683.56
2018-03-15T06:33:02.942Z,95694.66
2018-03-15T06:35:30.637Z,95695.30
2018-03-15T06:37:58.148Z,95696.08
2018-03-15T06:40:25.662Z,95697.40
2018-03-15T06:42:53.201Z,95690.17
2018-03-15T06:45:20.714Z,95692.97
2018-03-15T06:47:48.557Z,95687.93
2018-03-15T06:50:16.072Z,95678.41
2018-03-15T06:52:43.585Z,95679.85
2018-03-15T06:55:11.145Z,95687.23
2018-03-15T06:57:38.653Z,95687.20
2018-03-15T07:00:06.313Z,95668.12
2018-03-15T07:02:33.829Z,95673.42
2018-03-15T07:05:01.334Z,95669.50
2018-03-15T07:07:28.874Z,95660.80
2018-03-15T07:09:56.399Z,95654.67
2018-03-15T07:12:24.114Z,95657.77
2018-03-15T07:14:51.631Z,95662.24
2018-03-15T07:17:19.140Z,95664.52
2018-03-15T07:19:46.686Z,95668.98
2018-03-15T07:22:14.198Z,95662.73
2018-03-15T07:24:41.750Z,95650.00
2018-03-15T07:27:09.270Z,95642.51
2018-03-15T07:29:36.778Z,95637.23
2018-03-15T07:32:04.815Z,95628.41
2018-03-15T07:34:32.379Z,95634.06
2018-03-15T07:37:00.135Z,95631.09
2018-03-15T07:39:27.667Z,95616.31
2018-03-15T07:41:55.257Z,95608.38
2018-03-15T07:44:22.807Z,95602.00
2018-03-15T07:46:50.353Z,95600.36
2018-03-15T07:49:18.006Z,95606.66
2018-03-15T07:51:45.518Z,95607.42
2018-03-15T07:54:13.042Z,95607.34
2018-03-15T07:56:40.582Z,95607.35
2018-03-15T07:59:08.096Z,95606.44
2018-03-15T08:01:35.645Z,95609.36
2018-03-15T08:04:03.158Z,95601.02
2018-03-15T08:06:30.683Z,95602.17
2018-03-15T08:08:58.230Z,95603.30
2018-03-15T08:11:25.747Z,95606.52
2018-03-15T08:13:53.363Z,95611.49
2018-03-15T08:16:20.886Z,95613.98
2018-03-15T08:18:48.419Z,95619.80
2018-03-15T08:21:15.969Z,95614.14
2018-03-15T08:23:43.485Z,95619.48
2018-03-15T08:26:11.050Z,95610.74
2018-03-15T08:28:38.565Z,95609.22
2018-03-15T08:31:06.090Z,95603.50
2018-03-15T08:33:33.648Z,95593.55
2018-03-15T08:36:01.171Z,95596.22
2018-03-15T08:38:28.724Z,95594.11
2018-03-15T08:40:56.250Z,95595.83
2018-03-15T08:43:23.769Z,95587.56
2018-03-15T08:45:51.310Z,95578.98
2018-03-15T08:48:18.825Z,95578.34
2018-03-15T08:50:46.527Z,95567.17
2018-03-15T08:53:14.021Z,95564.33
2018-03-15T08:55:41.541Z,95560.24
2018-03-15T08:58:09.117Z,95552.44
2018-03-15T09:00:36.630Z,95550.08
2018-03-15T09:03:04.203Z,95540.61
2018-03-15T09:05:31.726Z,95532.98
2018-03-15T09:07:59.245Z,95539.42
2018-03-15T09:10:26.808Z,95531.36
2018-03-15T09:12:54.343Z,95533.36
2018-03-15T09:15:22.077Z,95532.31
2018-03-15T09:17:49.602Z,95533.50
2018-03-15T09:20:17.159Z,95527.21
2018-03-15T09:22:44.702Z,95522.38
2018-03-15T09:25:12.217Z,95513.20
2018-03-15T09:27:40.045Z,95511.73
2018-03-15T09:30:07.575Z,95520.38
2018-03-15T09:32:35.127Z,95522.63
2018-03-15T09:35:02.691Z,95536.19
2018-03-15T09:37:30.241Z,95526.55
2018-03-15T09:39:57.977Z,95514.91
2018-03-15T09:42:25.524Z,95514.33
2018-03-15T09:44:53.062Z,95513.59
2018-03-15T09:47:20.641Z,95506.79
2018-03-15T09:49:48.173Z,95500.00
2018-03-15T09:52:15.874Z,95504.03
2018-03-15T09:54:43.407Z,95497.75
2018-03-15T09:57:10.958Z,95486.89
2018-03-15T09:59:38.516Z,95473.44
2018-03-15T10:02:06.058Z,95466.22
2018-03-15T10:04:34.382Z,95464.38
2018-03-15T10:07:01.928Z,95466.73
2018-03-15T10:09:29.465Z,95461.55
2018-03-15T10:11:57.027Z,95463.36
2018-03-15T10:14:24.560Z,95468.30
2018-03-15T10:16:52.292Z,95471.98
2018-03-15T10:19:19.846Z,95468.98
2018-03-15T10:21:47.488Z,95478.98
2018-03-15T10:24:15.013Z,95476.16
2018-03-15T10:26:42.558Z,95476.52
2018-03-15T10:29:10.141Z,95475.53
2018-03-15T10:31:37.678Z,95481.52
2018-03-15T10:34:05.226Z,95475.72
2018-03-15T10:36:32.805Z,95482.55
2018-03-15T10:39:00.361Z,95479.37
2018-03-15T10:41:27.958Z,95478.61
2018-03-15T10:43:55.534Z,95479.88
2018-03-15T10:46:23.943Z,95471.34
2018-03-15T10:48:51.582Z,95477.75
2018-03-15T10:51:19.116Z,95469.67
2018-03-15T10:53:46.722Z,95466.17
2018-03-15T10:56:14.253Z,95465.72
2018-03-15T10:58:42.016Z,95469.55
2018-03-15T11:01:09.562Z,95464.33
2018-03-15T11:03:42.634Z,95460.14
2018-03-15T11:06:29.625Z,95467.51
2018-03-15T11:08:58.945Z,95461.81
2018-03-15T11:11:26.483Z,95455.55
2018-03-15T11:13:54.039Z,95463.11
2018-03-15T11:16:21.685Z,95458.78
2018-03-15T11:18:49.214Z,95448.02
2018-03-15T11:21:17.085Z,95439.80
2018-03-15T11:23:45.558Z,95438.27
2018-03-15T11:26:13.002Z,95435.16
2018-03-15T11:28:41.016Z,95431.71
2018-03-15T11:31:08.537Z,95428.17
2018-03-15T11:33:36.114Z,95419.28
2018-03-15T11:36:03.694Z,95410.55
2018-03-15T11:38:31.263Z,95402.35
2018-03-15T11:40:58.801Z,95399.83
2018-03-15T11:43:26.330Z,95406.59
2018-03-15T11:45:54.105Z,95403.36
2018-03-15T11:48:21.664Z,95405.53
2018-03-15T11:50:49.203Z,95395.17
2018-03-15T11:53:16.762Z,95391.86
2018-03-15T11:55:44.309Z,95380.25
2018-03-15T11:58:12.312Z,95379.87
2018-03-15T12:00:39.844Z,95376.23
2018-03-15T12:03:07.370Z,95370.31
2018-03-15T12:05:34.942Z,95364.84
2018-03-15T12:08:02.487Z,95356.16
2018-03-15T12:10:30.217Z,95351.23
2018-03-15T12:12:57.755Z,95345.86
2018-03-15T12:15:25.285Z,95344.55
2018-03-15T12:17:52.862Z,95336.85
2018-03-15T12:20:20.377Z,95333.52
2018-03-15T12:22:48.119Z,95318.13
2018-03-15T12:25:15.633Z,95322.53
2018-03-15T12:27:43.150Z,95313.03
2018-03-15T12:30:10.697Z,95308.48
2018-03-15T12:32:38.209Z,95309.02
2018-03-15T12:35:05.757Z,95298.02
2018-03-15T12:37:33.282Z,95292.52
2018-03-15T12:40:00.798Z,95285.24
2018-03-15T12:42:28.342Z,95274.73
2018-03-15T12:44:55.895Z,95278.00
2018-03-15T12:47:23.705Z,95260.39
2018-03-15T12:49:51.230Z,95260.67
2018-03-15T12:52:18.752Z,95242.94
2018-03-15T12:54:46.302Z,95245.25
2018-03-15T12:57:13.827Z,95246.88
2018-03-15T12:59:41.798Z,95232.95
2018-03-15T13:02:09.312Z,95227.00
2018-03-15T13:04:36.840Z,95229.45
2018-03-15T13:07:04.409Z,95228.27
2018-03-15T13:09:31.927Z,95225.91
2018-03-15T13:11:59.482Z,95224.77
2018-03-15T13:14:27.018Z,95211.59
2018-03-15T13:16:54.865Z,95204.02
2018-03-15T13:19:22.420Z,95203.45
2018-03-15T13:21:49.938Z,95195.54
2018-03-15T13:24:17.814Z,95205.72
2018-03-15T13:26:45.341Z,95210.44
2018-03-15T13:29:12.864Z,95207.72
2018-03-15T13:31:40.414Z,95213.40
2018-03-15T13:34:08.379Z,95210.99
2018-03-15T13:36:35.939Z,95211.39
2018-03-15T13:39:03.454Z,95210.39
2018-03-15T13:41:30.974Z,95214.63
2018-03-15T13:43:58.516Z,95217.58
2018-03-15T13:46:26.039Z,95225.64
2018-03-15T13:48:53.838Z,95228.27
2018-03-15T13:51:21.357Z,95235.77
2018-03-15T13:53:48.869Z,95235.39
2018-03-15T13:56:16.411Z,95234.98
2018-03-15T13:58:43.929Z,95229.81
2018-03-15T14:01:11.722Z,95232.75
2018-03-15T14:03:39.295Z,95235.98
2018-03-15T14:06:06.785Z,95230.30
2018-03-15T14:08:34.329Z,95230.16
2018-03-15T14:11:01.844Z,95227.80
2018-03-15T14:13:29.621Z,95223.89
2018-03-15T14:15:57.150Z,95218.64
2018-03-15T14:18:24.674Z,95222.30
2018-03-15T14:20:52.238Z,95199.27
2018-03-15T14:23:19.779Z,95187.41
2018-03-15T14:25:47.449Z,95181.38
2018-03-15T14:28:14.969Z,95167.22
2018-03-15T14:30:42.702Z,95160.79
2018-03-15T14:33:10.393Z,95152.91
2018-03-15T14:35:37.954Z,95128.33
2018-03-15T14:38:05.626Z,95127.57
2018-03-15T14:40:33.400Z,95149.10
2018-03-15T14:43:01.265Z,95145.75
2018-03-15T14:45:29.034Z,95150.99
2018-03-15T14:47:56.581Z,95139.02
2018-03-15T14:50:24.301Z,95144.31
2018-03-15T14:52:52.015Z,95152.37
2018-03-15T14:55:19.672Z,95166.94
2018-03-15T14:57:47.340Z,95170.80
2018-03-15T15:00:15.102Z,95175.21
2018-03-15T15:02:43.174Z,95182.75
2018-03-15T15:05:10.738Z,95172.48
2018-03-15T15:07:38.468Z,95184.86
2018-03-15T15:10:06.030Z,95187.23
2018-03-15T15:12:33.583Z,95175.92
2018-03-15T15:15:01.160Z,95166.30
2018-03-15T15:17:28.864Z,95159.09
2018-03-15T15:19:56.441Z,95148.75
2018-03-15T15:22:24.044Z,95157.78
2018-03-15T15:24:51.799Z,95164.16
2018-03-15T15:27:19.535Z,95173.80
2018-03-15T15:29:47.232Z,95166.94
2018-03-15T15:32:14.762Z,95170.61
2018-03-15T15:34:42.670Z,95170.83
2018-03-15T15:37:10.208Z,95176.92
2018-03-15T15:39:37.996Z,95176.48
2018-03-15T15:42:05.654Z,95173.94
2018-03-15T15:44:33.539Z,95164.14
2018-03-15T15:47:01.287Z,95170.59
2018-03-15T15:49:29.156Z,95168.13
2018-03-15T15:51:57.564Z,95160.85
2018-03-15T15:54:25.506Z,95156.55
2018-03-15T15:56:53.782Z,95159.23
2018-03-15T15:59:21.544Z,95159.75
2018-03-15T16:01:49.305Z,95147.89
2018-03-15T16:04:17.172Z,95144.98
2018-03-15T16:06:45.039Z,95162.91
2018-03-15T16:09:13.134Z,95155.75
2018-03-15T16:11:40.861Z,95155.29
2018-03-15T16:14:08.534Z,95164.08
2018-03-15T16:16:36.765Z,95158.83
2018-03-15T16:19:04.377Z,95167.94
2018-03-15T16:21:32.243Z,95161.77
2018-03-15T16:24:00.308Z,95160.16
2018-03-15T16:26:29.607Z,95166.95
2018-03-15T16:28:57.680Z,95161.41
2018-03-15T16:31:25.617Z,95166.14
2018-03-15T16:33:53.514Z,95162.79
2018-03-15T16:36:21.381Z,95155.65
2018-03-15T16:38:49.217Z,95157.73
2018-03-15T16:41:17.216Z,95161.55
2018-03-15T16:43:45.491Z,95159.59
2018-03-15T16:46:13.872Z,95172.81
2018-03-15T16:48:42.863Z,95181.38
2018-03-15T16:51:10.685Z,95175.56
2018-03-15T16:53:38.699Z,95172.89
2018-03-15T16:56:06.585Z,95175.64
2018-03-15T16:58:34.501Z,95183.21
2018-03-15T17:01:02.290Z,95186.55
2018-03-15T17:03:29.910Z,95192.09
2018-03-15T17:05:57.696Z,95204.05
2018-03-15T17:08:25.386Z,95200.73
2018-03-15T17:10:53.251Z,95206.67
2018-03-15T17:13:21.227Z,95208.92
2018-03-15T17:15:48.971Z,95200.06
2018-03-15T17:18:17.055Z,95203.12
2018-03-15T17:20:44.788Z,95206.76
2018-03-15T17:23:12.481Z,95209.52
2018-03-15T17:25:40.246Z,95219.11
2018-03-15T17:28:07.860Z,95226.41
2018-03-15T17:30:35.877Z,95249.36
2018-03-15T17:33:03.846Z,95260.45
2018-03-15T17:35:31.609Z,95252.91
2018-03-15T17:37:59.548Z,95260.96
2018-03-15T17:40:27.955Z,95267.17
2018-03-15T17:42:56.556Z,95272.12
2018-03-15T17:45:24.615Z,95268.09
2018-03-15T17:47:52.476Z,95275.56
2018-03-15T17:50:20.413Z,95283.73
2018-03-15T17:52:48.311Z,95283.48
2018-03-15T17:55:16.690Z,95292.50
2018-03-15T17:57:44.562Z,95294.84
2018-03-15T18:00:12.268Z,95295.81
2018-03-15T18:02:40.147Z,95297.63
2018-03-15T18:05:08.564Z,95306.10
2018-03-15T18:07:36.534Z,95311.88
2018-03-15T18:10:05.425Z,95312.15
2018-03-15T18:12:34.008Z,95314.45
2018-03-15T18:15:02.254Z,95322.98
2018-03-15T18:17:30.118Z,95316.36
2018-03-15T18:19:58.119Z,95313.02
2018-03-15T18:22:26.088Z,95314.33
2018-03-15T18:24:54.945Z,95305.63
2018-03-15T18:27:23.055Z,95314.96
2018-03-15T18:29:51.020Z,95318.77
2018-03-15T18:32:18.887Z,95322.74
2018-03-15T18:34:47.161Z,95316.18
2018-03-15T18:37:15.335Z,95311.16
2018-03-15T18:39:43.406Z,95318.72
2018-03-15T18:42:11.580Z,95312.95
2018-03-15T18:44:40.355Z,95322.88
2018-03-15T18:47:08.256Z,95323.66
2018-03-15T18:49:36.408Z,95323.16
2018-03-15T18:52:04.380Z,95324.64
2018-03-15T18:54:32.624Z,95320.02
2018-03-15T18:57:00.491Z,95330.83
2018-03-15T18:59:28.927Z,95337.86
2018-03-15T19:01:56.875Z,95341.42
2018-03-15T19:04:24.801Z,95345.70
2018-03-15T19:06:53.011Z,95346.05
2018-03-15T19:09:20.877Z,95351.02
2018-03-15T19:11:48.740Z,95358.87
2018-03-15T19:14:16.710Z,95359.86
2018-03-15T19:16:45.517Z,95368.09
2018-03-15T19:19:13.467Z,95371.53
2018-03-15T19:21:41.335Z,95368.45
2018-03-15T19:24:09.712Z,95375.23
2018-03-15T19:26:37.475Z,95378.59
2018-03-15T19:29:05.546Z,95389.40
2018-03-15T19:31:33.517Z,95398.02
2018-03-15T19:34:01.383Z,95402.53
2018-03-15T19:36:29.761Z,95404.61
2018-03-15T19:38:57.832Z,95407.72
2018-03-15T19:41:25.567Z,95412.27
2018-03-15T19:43:54.779Z,95416.47
2018-03-15T19:46:23.172Z,95417.73
2018-03-15T19:48:51.245Z,95414.07
2018-03-15T19:51:19.213Z,95429.30
2018-03-15T19:53:47.082Z,95429.55
2018-03-15T19:56:15.273Z,95432.17
2018-03-15T19:58:43.085Z,95432.78
2018-03-15T20:01:11.293Z,95426.69
2018-03-15T20:03:39.176Z,95424.86
2018-03-15T20:06:07.086Z,95433.72
2018-03-15T20:08:35.200Z,95433.66
2018-03-15T20:11:03.066Z,95440.53
2018-03-15T20:13:31.711Z,95447.94
2018-03-15T20:16:00.721Z,95450.78
2018-03-15T20:18:28.919Z,95453.27
2018-03-15T20:20:57.098Z,95462.42
2018-03-15T20:26:31.841Z,95461.86
2018-03-15T20:29:00.323Z,95462.84
2018-03-15T20:31:28.292Z,95469.91
2018-03-15T20:34:02.711Z,95480.91
2018-03-15T20:36:30.679Z,95480.80
2018-03-15T20:38:58.955Z,95485.67
2018-03-15T20:41:28.152Z,95483.59
2018-03-15T20:43:56.020Z,95482.61
2018-03-15T20:46:29.624Z,95484.11
2018-03-15T20:49:03.368Z,95493.41
2018-03-15T20:51:32.214Z,95496.75
2018-03-15T20:54:00.025Z,95498.97
2018-03-15T20:56:27.915Z,95511.61
2018-03-15T20:58:55.759Z,95512.49
2018-03-15T21:01:23.984Z,95515.44
2018-03-15T21:03:51.954Z,95515.84
2018-03-15T21:06:20.131Z,95517.88
2018-03-15T21:08:47.999Z,95517.18
2018-03-15T21:11:15.871Z,95515.08
2018-03-15T21:13:43.685Z,95502.13
2018-03-15T21:16:11.525Z,95512.16
2018-03-15T21:18:39.357Z,95518.32
2018-03-15T21:21:07.759Z,95523.36
2018-03-15T21:23:35.551Z,95516.06
2018-03-15T21:26:03.620Z,95512.00
2018-03-15T21:28:31.510Z,95509.42
2018-03-15T21:30:59.407Z,95510.20
2018-03-15T21:33:27.300Z,95526.86
2018-03-15T21:35:55.140Z,95541.17
2018-03-15T21:38:22.877Z,95549.51
2018-03-15T21:40:51.385Z,95551.18
2018-03-15T21:43:19.354Z,95555.84
2018-03-15T21:45:47.743Z,95558.37
2018-03-15T21:48:15.394Z,95556.75
2018-03-15T21:50:43.330Z,95566.35
2018-03-15T21:53:11.844Z,95564.02
2018-03-15T21:55:39.719Z,95568.29
2018-03-15T21:58:07.564Z,95568.75
2018-03-15T22:00:35.328Z,95568.93
2018-03-15T22:03:03.003Z,95566.52
2018-03-15T22:05:30.881Z,95572.23
2018-03-15T22:07:58.737Z,95580.89
2018-03-15T22:10:26.670Z,95583.23
2018-03-15T22:12:54.573Z,95583.66
2018-03-15T22:15:22.324Z,95588.31
2018-03-15T22:17:50.139Z,95588.83
2018-03-15T22:20:18.173Z,95584.84
2018-03-15T22:22:45.938Z,95586.77
2018-03-15T22:25:13.521Z,95581.63
2018-03-15T22:27:41.358Z,95579.53
2018-03-15T22:30:09.023Z,95573.86
2018-03-15T22:32:36.614Z,95576.31
2018-03-15T22:35:04.170Z,95583.02
2018-03-15T22:37:31.901Z,95586.70
2018-03-15T22:39:59.547Z,95589.19
2018-03-15T22:42:27.162Z,95589.82
2018-03-15T22:44:54.786Z,95580.19
2018-03-15T22:47:22.867Z,95581.63
2018-03-15T22:49:50.404Z,95586.30
2018-03-15T22:52:17.925Z,95579.07
2018-03-15T22:54:45.513Z,95580.05
2018-03-15T22:57:13.029Z,95583.38
2018-03-15T22:59:40.596Z,95589.56
2018-03-15T23:02:08.123Z,95593.59
2018-03-15T23:04:35.772Z,95596.27
2018-03-15T23:07:03.333Z,95603.37
2018-03-15T23:09:30.854Z,95610.76
2018-03-15T23:11:58.437Z,95609.30
2018-03-15T23:14:25.965Z,95603.59
2018-03-15T23:16:53.487Z,95606.64
2018-03-15T23:19:21.059Z,95610.50
2018-03-15T23:21:48.578Z,95599.27
2018-03-15T23:24:16.125Z,95595.92
2018-03-15T23:26:43.650Z,95596.92
2018-03-15T23:29:11.173Z,95610.37
2018-03-15T23:31:38.715Z,95621.50
2018-03-15T23:34:06.233Z,95617.38
2018-03-15T23:36:33.806Z,95627.75
2018-03-15T23:39:01.337Z,95626.59
2018-03-15T23:41:28.858Z,95625.22
2018-03-15T23:43:56.424Z,95620.94
2018-03-15T23:46:23.941Z,95617.70
2018-03-15T23:48:51.490Z,95621.16
2018-03-15T23:51:19.007Z,95617.48
2018-03-15T23:53:46.526Z,95623.33
2018-03-15T23:56:14.212Z,95625.81
2018-03-15T23:58:41.714Z,95629.34
